ENRA/MQN METAR and TAF weather

Enter ICAO airport designator
Station Type Date Time Source
ENRA METAR 2019/06/26 20:20 UTC NOAA

ENRA 262020Z 21003KT 9999 -RADZ FEW006 SCT010 BKN015 09/07 Q1016


Station Type Date Time Source
ENRA Decoded METAR 2019/06/26 20:20 UTC NOAA

Mo I Rana / Rossvoll, Norway (ENRA) 66-22N 014-18E 70M
Jun 26, 2019 - 04:20 PM EDT / 2019.06.26 2020 UTC
Wind: from the SSW (210 degrees) at 3 MPH (3 KT):0
Visibility: greater than 7 mile(s):0
Sky conditions: mostly cloudy
Weather: light rain, drizzle
Temperature: 48 F (9 C)
Dew Point: 44 F (7 C)
Relative Humidity: 87%
Pressure (altimeter): 30.00 in. Hg (1016 hPa)
ob: ENRA 262020Z 21003KT 9999 -RADZ FEW006 SCT010 BKN015 09/07 Q1016
cycle: 20

Station Type Date Time Source
ENRA TAF UTC NOAA

Error!

Example: see airport list